createdAt,value
2022-10-02T00:01:07.406Z,8.43
2022-10-02T00:04:17.389Z,9.10
2022-10-02T00:07:31.055Z,8.17
2022-10-02T00:10:44.925Z,8.97
2022-10-02T00:13:55.360Z,8.83
2022-10-02T00:17:03.891Z,8.20
2022-10-02T00:20:14.837Z,8.40
2022-10-02T00:23:26.706Z,8.53
2022-10-02T00:26:38.330Z,9.43
2022-10-02T00:29:51.195Z,8.93
2022-10-02T00:33:09.679Z,9.37
2022-10-02T00:36:27.808Z,15.30
2022-10-02T00:39:46.984Z,9.80
2022-10-02T00:43:06.681Z,6.73
2022-10-02T00:46:31.584Z,7.40
2022-10-02T00:49:59.335Z,7.30
2022-10-02T00:53:20.785Z,10.53
2022-10-02T00:56:35.355Z,6.40
2022-10-02T00:59:58.640Z,13.30
2022-10-02T01:03:19.426Z,6.67
2022-10-02T01:06:28.691Z,11.80
2022-10-02T01:09:35.899Z,10.77
2022-10-02T01:12:43.099Z,7.07
2022-10-02T01:15:54.727Z,6.97
2022-10-02T01:19:00.836Z,5.80
2022-10-02T01:22:18.761Z,7.53
2022-10-02T01:25:26.648Z,5.87
2022-10-02T01:28:33.103Z,6.20
2022-10-02T01:31:39.721Z,5.83
2022-10-02T01:34:47.247Z,5.93
2022-10-02T01:37:55.796Z,4.90
2022-10-02T01:41:03.753Z,4.47
2022-10-02T01:44:10.124Z,3.43
2022-10-02T01:47:20.122Z,4.23
2022-10-02T01:50:34.055Z,4.00
2022-10-02T01:53:47.493Z,4.20
2022-10-02T01:57:08.962Z,4.10
2022-10-02T02:00:18.953Z,5.63
2022-10-02T02:03:37.619Z,4.37
2022-10-02T02:06:52.928Z,3.40
2022-10-02T02:10:05.681Z,3.80
2022-10-02T02:13:17.807Z,3.30
2022-10-02T02:16:29.338Z,3.80
2022-10-02T02:19:40.703Z,4.20
2022-10-02T02:22:51.851Z,4.53
2022-10-02T02:26:04.152Z,4.37
2022-10-02T02:29:14.095Z,4.33
2022-10-02T02:32:25.718Z,3.33
2022-10-02T02:35:36.944Z,3.07
2022-10-02T02:38:48.067Z,3.00
2022-10-02T02:41:59.895Z,3.00
2022-10-02T02:45:13.908Z,3.00
2022-10-02T02:48:26.003Z,2.80
2022-10-02T02:51:37.591Z,2.10
2022-10-02T02:54:47.816Z,3.37
2022-10-02T02:57:58.046Z,3.37
2022-10-02T03:01:05.482Z,4.47
2022-10-02T03:04:14.094Z,4.33
2022-10-02T03:07:20.116Z,3.97
2022-10-02T03:10:46.858Z,5.17
2022-10-02T03:14:01.182Z,4.43
2022-10-02T03:17:18.315Z,3.97
2022-10-02T03:20:31.151Z,3.97
2022-10-02T03:23:51.522Z,3.77
2022-10-02T03:27:04.034Z,3.50
2022-10-02T03:30:12.916Z,4.20
2022-10-02T03:33:22.989Z,4.97
2022-10-02T03:36:29.842Z,4.90
2022-10-02T03:39:35.982Z,4.50
2022-10-02T03:42:43.297Z,4.83
2022-10-02T03:45:51.650Z,3.63
2022-10-02T03:48:59.894Z,4.17
2022-10-02T03:52:06.493Z,4.20
2022-10-02T03:55:22.968Z,3.63
2022-10-02T03:58:29.143Z,4.47
2022-10-02T04:01:43.456Z,3.70
2022-10-02T04:04:57.766Z,3.13
2022-10-02T04:08:10.687Z,3.80
2022-10-02T04:11:23.910Z,3.43
2022-10-02T04:14:36.674Z,3.37
2022-10-02T04:17:48.096Z,4.40
2022-10-02T04:21:01.416Z,4.17
2022-10-02T04:24:16.975Z,3.63
2022-10-02T04:27:33.864Z,4.13
2022-10-02T04:30:40.298Z,3.73
2022-10-02T04:33:46.685Z,5.37
2022-10-02T04:37:12.359Z,3.47
2022-10-02T04:40:31.261Z,3.10
2022-10-02T04:43:50.740Z,3.77
2022-10-02T04:47:12.832Z,4.73
2022-10-02T04:50:33.088Z,4.80
2022-10-02T04:53:54.637Z,3.93
2022-10-02T04:57:18.123Z,3.30
2022-10-02T05:00:26.975Z,5.93
2022-10-02T05:04:04.203Z,5.40
2022-10-02T05:07:23.038Z,18.63
2022-10-02T05:10:45.496Z,5.17
2022-10-02T05:14:06.427Z,5.63
2022-10-02T05:17:26.917Z,5.27
2022-10-02T05:20:53.619Z,6.43
2022-10-02T05:24:14.674Z,7.50
2022-10-02T05:27:50.379Z,6.17
2022-10-02T05:31:09.802Z,6.07
2022-10-02T05:34:33.617Z,5.10
2022-10-02T05:37:53.611Z,5.37
2022-10-02T05:41:05.043Z,5.73
2022-10-02T05:44:16.596Z,7.40
2022-10-02T05:47:31.529Z,5.70
2022-10-02T05:50:39.838Z,4.80
2022-10-02T05:53:49.021Z,4.60
2022-10-02T05:57:01.795Z,7.20
2022-10-02T06:00:21.075Z,6.73
2022-10-02T06:03:40.458Z,4.27
2022-10-02T06:06:51.628Z,4.30
2022-10-02T06:10:02.590Z,2.80
2022-10-02T06:13:14.422Z,2.73
2022-10-02T06:16:28.723Z,2.80
2022-10-02T06:19:40.223Z,2.43
2022-10-02T06:22:52.183Z,2.63
2022-10-02T06:26:02.603Z,3.30
2022-10-02T06:29:19.202Z,3.20
2022-10-02T06:32:36.542Z,6.23
2022-10-02T06:35:59.545Z,3.50
2022-10-02T06:39:22.908Z,3.30
2022-10-02T06:42:41.364Z,2.50
2022-10-02T06:45:58.610Z,3.20
2022-10-02T06:49:17.603Z,2.30
2022-10-02T06:52:37.262Z,2.20
2022-10-02T06:55:52.810Z,2.33
2022-10-02T06:59:13.399Z,2.70
2022-10-02T07:02:35.216Z,2.10
2022-10-02T07:06:00.417Z,2.43
2022-10-02T07:09:53.032Z,2.30
2022-10-02T07:13:15.917Z,2.20
2022-10-02T07:16:35.118Z,2.17
2022-10-02T07:19:53.903Z,2.20
2022-10-02T07:23:17.239Z,2.07
2022-10-02T07:26:49.715Z,2.20
2022-10-02T07:30:03.371Z,1.90
2022-10-02T07:33:29.149Z,2.20
2022-10-02T07:36:48.018Z,2.13
2022-10-02T07:40:14.014Z,2.10
2022-10-02T07:43:32.144Z,3.10
2022-10-02T07:46:49.846Z,3.40
2022-10-02T07:50:02.086Z,3.30
2022-10-02T07:53:18.989Z,3.03
2022-10-02T07:56:27.755Z,3.63
2022-10-02T07:59:36.964Z,4.10
2022-10-02T08:02:50.901Z,3.63
2022-10-02T08:05:59.246Z,3.43
2022-10-02T08:09:12.082Z,3.50
2022-10-02T08:12:34.175Z,4.37
2022-10-02T08:15:43.672Z,4.17
2022-10-02T08:18:55.908Z,4.27
2022-10-02T08:22:08.490Z,4.27
2022-10-02T08:25:22.026Z,3.90
2022-10-02T08:28:37.892Z,3.60
2022-10-02T08:31:44.236Z,3.07
2022-10-02T08:34:50.404Z,2.77
2022-10-02T08:38:14.186Z,2.83
2022-10-02T08:42:05.100Z,3.07
2022-10-02T08:45:47.872Z,2.53
2022-10-02T08:49:21.611Z,2.90
2022-10-02T08:52:48.191Z,2.63
2022-10-02T08:56:19.153Z,3.17
2022-10-02T09:00:01.815Z,3.53
2022-10-02T09:03:45.803Z,3.17
2022-10-02T09:07:28.285Z,4.33
2022-10-02T09:11:09.377Z,2.90
2022-10-02T09:14:59.062Z,3.33
2022-10-02T09:18:18.043Z,3.30
2022-10-02T09:21:46.619Z,3.60
2022-10-02T09:25:19.455Z,3.60
2022-10-02T09:29:09.743Z,3.47
2022-10-02T09:33:02.938Z,4.40
2022-10-02T09:36:57.479Z,3.73
2022-10-02T09:40:35.497Z,3.10
2022-10-02T09:44:23.834Z,3.40
2022-10-02T09:48:01.587Z,3.20
2022-10-02T09:51:49.160Z,3.03
2022-10-02T09:55:45.001Z,3.10
2022-10-02T09:59:30.468Z,3.13
2022-10-02T10:03:24.149Z,2.87
2022-10-02T10:07:16.291Z,2.80
2022-10-02T10:10:54.112Z,2.90
2022-10-02T10:14:48.286Z,2.80
2022-10-02T10:18:36.566Z,2.90
2022-10-02T10:22:10.625Z,3.00
2022-10-02T10:25:35.242Z,2.93
2022-10-02T10:29:09.207Z,3.60
2022-10-02T10:33:17.958Z,3.10
2022-10-02T10:37:09.590Z,3.10
2022-10-02T10:40:38.481Z,2.97
2022-10-02T10:44:14.784Z,2.87
2022-10-02T10:47:36.591Z,2.60
2022-10-02T10:51:05.951Z,3.60
2022-10-02T10:54:49.955Z,2.50
2022-10-02T10:58:15.026Z,2.77
2022-10-02T11:01:24.516Z,2.63
2022-10-02T11:05:00.768Z,2.93
2022-10-02T11:08:27.408Z,3.03
2022-10-02T11:11:44.867Z,2.73
2022-10-02T11:15:04.986Z,2.40
2022-10-02T11:18:43.017Z,3.10
2022-10-02T11:22:08.540Z,3.10
2022-10-02T11:25:29.774Z,3.70
2022-10-02T11:29:04.249Z,3.17
2022-10-02T11:32:46.799Z,2.83
2022-10-02T11:36:09.908Z,3.50
2022-10-02T11:39:20.955Z,3.13
2022-10-02T11:42:48.539Z,3.10
2022-10-02T11:46:12.156Z,3.30
2022-10-02T11:49:39.514Z,2.90
2022-10-02T11:53:22.384Z,3.10
2022-10-02T11:56:46.726Z,5.60
2022-10-02T12:00:13.553Z,3.17
2022-10-02T12:03:27.111Z,2.77
2022-10-02T12:06:49.401Z,2.87
2022-10-02T12:10:25.742Z,10.77
2022-10-02T12:13:50.136Z,1.53
2022-10-02T12:17:22.516Z,1.90
2022-10-02T12:21:08.226Z,2.10
2022-10-02T12:24:40.805Z,1.70
2022-10-02T12:27:58.502Z,1.90
2022-10-02T12:31:15.353Z,1.87
2022-10-02T12:34:40.549Z,1.90
2022-10-02T12:37:57.392Z,1.73
2022-10-02T12:41:13.392Z,1.97
2022-10-02T12:44:48.046Z,2.20
2022-10-02T12:48:12.367Z,1.80
2022-10-02T12:51:36.496Z,1.60
2022-10-02T12:55:33.570Z,1.70
2022-10-02T12:58:55.315Z,2.97
2022-10-02T13:02:56.119Z,1.77
2022-10-02T13:06:29.844Z,1.83
2022-10-02T13:09:53.068Z,2.20
2022-10-02T13:13:21.093Z,2.13
2022-10-02T13:16:35.769Z,2.10
2022-10-02T13:19:55.846Z,1.90
2022-10-02T13:23:16.914Z,1.93
2022-10-02T13:26:34.432Z,1.90
2022-10-02T13:29:58.831Z,1.90
2022-10-02T13:33:23.643Z,1.80
2022-10-02T13:36:38.653Z,3.07
2022-10-02T13:40:04.700Z,2.30
2022-10-02T13:43:30.428Z,2.20
2022-10-02T13:47:04.475Z,2.10
2022-10-02T13:50:25.914Z,1.90
2022-10-02T13:53:48.670Z,1.90
2022-10-02T13:57:03.723Z,3.07
2022-10-02T14:00:14.596Z,3.63
2022-10-02T14:03:35.328Z,3.17
2022-10-02T14:06:47.218Z,3.43
2022-10-02T14:10:05.064Z,2.70
2022-10-02T14:13:25.263Z,3.10
2022-10-02T14:16:48.291Z,3.53
2022-10-02T14:20:15.429Z,3.90
2022-10-02T14:23:42.227Z,3.20
2022-10-02T14:27:04.310Z,3.20
2022-10-02T14:30:17.929Z,4.17
2022-10-02T14:33:40.014Z,4.40
2022-10-02T14:36:55.899Z,5.30
2022-10-02T14:40:13.853Z,3.67
2022-10-02T14:43:43.495Z,2.90
2022-10-02T14:47:15.269Z,2.80
2022-10-02T14:50:53.749Z,2.60
2022-10-02T14:54:20.404Z,3.20
2022-10-02T14:57:40.799Z,2.13
2022-10-02T15:01:18.263Z,2.00
2022-10-02T15:04:42.947Z,2.67
2022-10-02T15:07:49.581Z,2.10
2022-10-02T15:10:55.670Z,4.37
2022-10-02T15:14:08.430Z,4.80
2022-10-02T15:17:42.304Z,2.93
2022-10-02T15:21:02.138Z,3.57
2022-10-02T15:24:29.297Z,3.20
2022-10-02T15:27:45.797Z,3.80
2022-10-02T15:30:58.937Z,3.33
2022-10-02T15:34:20.196Z,3.23
2022-10-02T15:37:29.407Z,3.07
2022-10-02T15:40:44.933Z,2.33
2022-10-02T15:44:03.298Z,2.50
2022-10-02T15:47:22.315Z,3.10
2022-10-02T15:50:39.759Z,4.57
2022-10-02T15:54:00.495Z,5.40
2022-10-02T15:57:41.383Z,5.57
2022-10-02T16:01:08.899Z,4.40
2022-10-02T16:04:26.472Z,4.57
2022-10-02T16:08:01.736Z,4.87
2022-10-02T16:11:34.921Z,4.80
2022-10-02T16:14:58.722Z,4.90
2022-10-02T16:18:25.812Z,4.63
2022-10-02T16:21:52.386Z,14.07
2022-10-02T16:25:24.750Z,4.23
2022-10-02T16:28:44.955Z,8.60
2022-10-02T16:32:10.599Z,4.27
2022-10-02T16:35:26.328Z,7.23
2022-10-02T16:38:48.510Z,5.00
2022-10-02T16:42:03.159Z,4.17
2022-10-02T16:45:36.904Z,6.80
2022-10-02T16:48:54.276Z,9.87
2022-10-02T16:52:07.815Z,6.47
2022-10-02T16:55:24.300Z,4.67
2022-10-02T16:58:41.495Z,3.00
2022-10-02T17:02:16.004Z,2.87
2022-10-02T17:05:27.749Z,3.60
2022-10-02T17:08:42.725Z,5.50
2022-10-02T17:11:56.559Z,5.63
2022-10-02T17:15:17.027Z,4.90
2022-10-02T17:18:34.031Z,3.10
2022-10-02T17:21:47.163Z,3.20
2022-10-02T17:25:06.011Z,3.20
2022-10-02T17:28:26.152Z,2.80
2022-10-02T17:31:48.086Z,3.00
2022-10-02T17:34:58.999Z,4.93
2022-10-02T17:38:44.827Z,3.40
2022-10-02T17:41:57.043Z,5.17
2022-10-02T17:45:19.409Z,5.23
2022-10-02T17:48:40.397Z,8.80
2022-10-02T17:51:54.205Z,4.30
2022-10-02T17:55:26.500Z,7.63
2022-10-02T17:58:39.339Z,9.63
2022-10-02T18:01:55.945Z,9.07
2022-10-02T18:05:29.479Z,8.97
2022-10-02T18:08:51.999Z,10.93
2022-10-02T18:12:27.415Z,4.17
2022-10-02T18:15:57.158Z,3.10
2022-10-02T18:19:29.219Z,4.37
2022-10-02T18:22:58.571Z,12.07
2022-10-02T18:26:19.520Z,7.47
2022-10-02T18:29:45.936Z,9.20
2022-10-02T18:33:32.453Z,13.20
2022-10-02T18:37:00.093Z,8.33
2022-10-02T18:40:20.034Z,4.83
2022-10-02T18:43:47.813Z,8.40
2022-10-02T18:47:07.836Z,4.10
2022-10-02T18:50:44.581Z,3.10
2022-10-02T18:54:18.701Z,4.43
2022-10-02T18:57:38.563Z,3.43
2022-10-02T19:01:06.878Z,3.13
2022-10-02T19:04:32.402Z,2.37
2022-10-02T19:07:43.283Z,2.40
2022-10-02T19:10:51.020Z,8.47
2022-10-02T19:14:02.179Z,3.80
2022-10-02T19:17:14.224Z,3.07
2022-10-02T19:20:42.002Z,4.40
2022-10-02T19:23:52.453Z,2.97
2022-10-02T19:27:02.495Z,10.73
2022-10-02T19:30:22.542Z,5.17
2022-10-02T19:33:41.377Z,6.40
2022-10-02T19:36:50.878Z,16.47
2022-10-02T19:40:00.477Z,27.83
2022-10-02T19:43:25.700Z,21.73
2022-10-02T19:46:37.299Z,8.87
2022-10-02T19:49:44.513Z,5.30
2022-10-02T19:52:55.077Z,5.20
2022-10-02T19:56:04.127Z,6.77
2022-10-02T19:59:17.435Z,7.33
2022-10-02T20:02:29.050Z,5.50
2022-10-02T20:05:36.965Z,9.73
2022-10-02T20:08:47.203Z,9.27
2022-10-02T20:11:58.846Z,7.53
2022-10-02T20:15:12.911Z,11.53
2022-10-02T20:18:21.552Z,15.27
2022-10-02T20:21:37.904Z,21.97
2022-10-02T20:24:52.272Z,12.00
2022-10-02T20:28:04.657Z,14.87
2022-10-02T20:31:18.932Z,16.07
2022-10-02T20:34:29.887Z,15.27
2022-10-02T20:37:37.167Z,13.17
2022-10-02T20:40:53.301Z,6.30
2022-10-02T20:44:06.257Z,6.93
2022-10-02T20:47:56.361Z,11.20
2022-10-02T20:51:06.120Z,6.07
2022-10-02T20:54:27.711Z,6.17
2022-10-02T20:58:02.334Z,4.90
2022-10-02T21:01:18.771Z,6.27
2022-10-02T21:05:05.739Z,5.97
2022-10-02T21:08:33.187Z,5.93
2022-10-02T21:12:04.173Z,10.57
2022-10-02T21:15:42.419Z,13.63
2022-10-02T21:19:24.933Z,8.20
2022-10-02T21:23:03.958Z,16.37
2022-10-02T21:26:44.229Z,20.33
2022-10-02T21:30:14.082Z,17.37
2022-10-02T21:33:23.588Z,15.50
2022-10-02T21:36:36.354Z,8.03
2022-10-02T21:40:23.369Z,8.00
2022-10-02T21:44:00.324Z,6.07
2022-10-02T21:47:34.907Z,5.10
2022-10-02T21:51:32.413Z,5.60
2022-10-02T21:55:15.224Z,4.93
2022-10-02T21:58:50.391Z,5.50
2022-10-02T22:02:26.027Z,7.43
2022-10-02T22:06:05.450Z,5.03
2022-10-02T22:09:26.849Z,4.77
2022-10-02T22:12:46.731Z,9.70
2022-10-02T22:16:09.196Z,5.00
2022-10-02T22:19:31.300Z,8.17
2022-10-02T22:22:56.072Z,6.90
2022-10-02T22:26:17.433Z,4.87
2022-10-02T22:29:36.326Z,4.83
2022-10-02T22:33:13.604Z,6.13
2022-10-02T22:36:42.359Z,5.60
2022-10-02T22:40:00.935Z,5.53
2022-10-02T22:43:10.491Z,4.60
2022-10-02T22:46:30.273Z,11.80
2022-10-02T22:49:44.475Z,4.73
2022-10-02T22:52:56.403Z,4.83
2022-10-02T22:56:02.501Z,4.60
2022-10-02T22:59:15.327Z,4.17
2022-10-02T23:02:27.422Z,5.93
2022-10-02T23:05:42.483Z,4.30
2022-10-02T23:08:56.370Z,3.87
2022-10-02T23:12:11.964Z,4.23
2022-10-02T23:15:31.309Z,3.60
2022-10-02T23:18:43.055Z,3.97
2022-10-02T23:21:54.751Z,4.40
2022-10-02T23:25:05.431Z,4.07
2022-10-02T23:28:19.126Z,4.40
2022-10-02T23:31:31.628Z,7.87
2022-10-02T23:34:44.117Z,4.17
2022-10-02T23:37:56.747Z,3.37
2022-10-02T23:41:27.767Z,4.70
2022-10-02T23:44:42.969Z,31.37
2022-10-02T23:47:59.290Z,21.07
2022-10-02T23:51:18.396Z,8.07
2022-10-02T23:54:43.387Z,9.10
2022-10-02T23:58:18.782Z,6.17
